Time;durP1;ratioP1;P1;durP2;ratioP2;P2;SDS_P1;SDS_P2;PMS_P1;PMS_P2;Temp;Humidity;BMP_temperature;BMP_pressure;BME280_temperature;BME280_humidity;BME280_pressure;Samples;Min_cycle;Max_cycle;Signal;HPM_P1;HPM_P2
2023/02/25 00:01:42;;;;;;;;;;;;;;;6.81;100.00;96747.92;67556;1282;1018695;-60
2023/02/25 00:04:44;;;;;;;43.90;19.00;;;;;;;6.65;100.00;96748.77;67531;1282;1018068;-60
2023/02/25 00:07:47;;;;;;;42.50;17.80;;;;;;;6.61;100.00;96734.90;67607;1281;1016469;-60
2023/02/25 00:10:49;;;;;;;38.30;17.20;;;;;;;6.65;100.00;96737.17;67603;1282;1019265;-60
2023/02/25 00:13:52;;;;;;;42.20;18.70;;;;;;;6.64;100.00;96725.95;67535;1282;1016382;-59
2023/02/25 00:16:56;;;;;;;37.00;15.40;;;;;;;6.71;100.00;96727.80;67532;1282;1016755;-60
2023/02/25 00:19:59;;;;;;;36.30;15.30;;;;;;;6.61;100.00;96721.14;67534;1282;1016280;-60
2023/02/25 00:23:02;;;;;;;39.70;16.30;;;;;;;6.66;100.00;96707.42;67550;1282;1016392;-60
2023/02/25 00:26:05;;;;;;;36.00;15.10;;;;;;;6.77;100.00;96697.86;67533;1282;1016455;-59
2023/02/25 00:29:08;;;;;;;36.90;15.40;;;;;;;6.51;100.00;96696.79;67517;1282;1016449;-59
2023/02/25 00:32:10;;;;;;;39.30;15.20;;;;;;;6.39;100.00;96696.28;67547;1282;1016500;-60
2023/02/25 00:35:13;;;;;;;35.40;14.60;;;;;;;6.33;100.00;96701.27;67580;1282;1016508;-59
2023/02/25 00:38:15;;;;;;;31.50;13.00;;;;;;;6.27;100.00;96718.72;67586;1281;1016304;-60
2023/02/25 00:41:18;;;;;;;34.80;14.00;;;;;;;6.18;100.00;96720.50;67549;1282;1016381;-60
2023/02/25 00:44:20;;;;;;;31.20;12.50;;;;;;;6.10;100.00;96706.48;67563;1282;1016465;-59
2023/02/25 00:47:22;;;;;;;31.70;11.80;;;;;;;6.14;100.00;96701.17;67522;1282;1016391;-59
2023/02/25 00:50:25;;;;;;;30.20;12.10;;;;;;;6.05;100.00;96693.16;67550;1261;1016416;-60
2023/02/25 00:53:27;;;;;;;30.90;11.50;;;;;;;5.96;100.00;96700.42;67556;1282;1016469;-59
2023/02/25 00:56:30;;;;;;;28.40;11.20;;;;;;;5.85;100.00;96696.58;67586;1281;1016520;-60
2023/02/25 00:59:32;;;;;;;29.50;11.60;;;;;;;5.74;100.00;96688.55;67538;1281;1016500;-59
2023/02/25 01:02:34;;;;;;;29.50;11.50;;;;;;;5.63;100.00;96688.17;67540;1282;1016379;-61
2023/02/25 01:05:37;;;;;;;28.70;10.40;;;;;;;5.48;100.00;96669.10;67572;1282;1016346;-59
2023/02/25 01:08:39;;;;;;;27.80;10.30;;;;;;;5.45;100.00;96662.45;67578;1281;1016446;-60
2023/02/25 01:11:42;;;;;;;28.50;10.90;;;;;;;5.46;100.00;96665.01;67584;1282;1016473;-60
2023/02/25 01:14:44;;;;;;;30.80;11.30;;;;;;;5.43;100.00;96667.79;67574;1282;1016514;-59
2023/02/25 01:17:47;;;;;;;34.20;13.30;;;;;;;5.52;100.00;96671.41;67529;1281;1015945;-60
2023/02/25 01:20:49;;;;;;;30.90;12.10;;;;;;;5.68;100.00;96662.48;67549;1282;1018528;-59
2023/02/25 01:23:52;;;;;;;34.60;13.20;;;;;;;5.82;100.00;96663.19;67568;1282;1016186;-60
2023/02/25 01:26:55;;;;;;;34.10;13.80;;;;;;;5.81;100.00;96647.77;67531;1282;1016508;-59
2023/02/25 01:29:57;;;;;;;35.30;13.60;;;;;;;5.84;100.00;96638.66;67518;1281;1016384;-60
2023/02/25 01:33:00;;;;;;;36.30;15.30;;;;;;;5.94;100.00;96642.10;67562;1281;1017135;-59
2023/02/25 01:36:02;;;;;;;38.30;15.20;;;;;;;6.03;100.00;96647.67;67541;1282;1016334;-59
2023/02/25 01:39:05;;;;;;;34.40;14.40;;;;;;;6.04;100.00;96637.73;67508;1282;1016280;-60
2023/02/25 01:42:07;;;;;;;32.40;13.80;;;;;;;6.00;100.00;96621.90;67543;1282;1016445;-60
2023/02/25 01:45:10;;;;;;;35.20;13.90;;;;;;;5.94;100.00;96619.70;67568;1282;1016462;-59
2023/02/25 01:48:12;;;;;;;38.10;15.00;;;;;;;5.84;100.00;96613.36;67570;1282;1016426;-59
2023/02/25 01:51:14;;;;;;;32.80;13.10;;;;;;;5.73;100.00;96616.67;67597;1282;1019228;-59
2023/02/25 01:54:17;;;;;;;31.40;13.00;;;;;;;5.67;100.00;96603.08;67552;1281;1016337;-60
2023/02/25 01:57:20;;;;;;;33.40;13.00;;;;;;;5.63;100.00;96595.04;67515;1282;1016477;-59
2023/02/25 02:00:22;;;;;;;31.40;12.50;;;;;;;5.61;100.00;96591.02;67582;1282;1016178;-59
2023/02/25 02:03:25;;;;;;;;;;;;;;;5.74;100.00;96591.81;67589;1282;1016349;-60
2023/02/25 02:06:29;;;;;;;36.30;14.40;;;;;;;5.53;100.00;96586.10;67565;1282;1016958;-60
2023/02/25 02:09:31;;;;;;;35.90;14.30;;;;;;;5.58;100.00;96575.12;67562;1282;1016527;-59
2023/02/25 02:12:33;;;;;;;36.80;14.50;;;;;;;5.44;100.00;96568.44;67539;1282;1016495;-59
2023/02/25 02:15:36;;;;;;;33.70;13.40;;;;;;;5.42;100.00;96575.49;67539;1282;1016414;-60
2023/02/25 02:18:38;;;;;;;33.70;13.40;;;;;;;5.40;100.00;96576.36;67585;1282;1016292;-60
2023/02/25 02:21:43;;;;;;;34.40;13.80;;;;;;;5.43;100.00;96577.32;67568;1282;1016454;-60
2023/02/25 02:24:45;;;;;;;33.60;14.30;;;;;;;5.39;100.00;96572.44;67545;1282;1018601;-60
2023/02/25 02:27:48;;;;;;;31.70;12.60;;;;;;;5.45;100.00;96571.83;67530;1281;1016109;-60
2023/02/25 02:30:50;;;;;;;31.10;12.30;;;;;;;5.42;100.00;96574.77;67602;1282;1016404;-60
2023/02/25 02:33:52;;;;;;;36.10;15.20;;;;;;;5.38;100.00;96578.07;67586;1281;1016437;-60
2023/02/25 02:36:56;;;;;;;36.10;14.60;;;;;;;5.33;100.00;96580.83;67559;1282;1016405;-59
2023/02/25 02:39:58;;;;;;;32.30;12.80;;;;;;;5.32;100.00;96584.85;67587;1282;1016403;-59
2023/02/25 02:43:01;;;;;;;32.30;13.10;;;;;;;5.33;100.00;96585.15;67583;1282;1016468;-60
2023/02/25 02:46:03;;;;;;;30.10;11.90;;;;;;;5.33;100.00;96578.04;67561;1282;1016260;-59
2023/02/25 02:49:06;;;;;;;31.70;11.80;;;;;;;5.24;100.00;96583.39;67546;1282;1016484;-60
2023/02/25 02:52:13;;;;;;;31.80;12.50;;;;;;;5.21;100.00;96585.70;67582;1281;1016495;-60
2023/02/25 02:55:21;;;;;;;36.20;15.20;;;;;;;5.15;100.00;96587.36;67549;1281;1016439;-59
2023/02/25 02:58:23;;;;;;;29.10;11.70;;;;;;;5.12;100.00;96579.27;67594;1281;1016381;-59
2023/02/25 03:01:26;;;;;;;31.70;11.90;;;;;;;5.17;100.00;96575.43;67532;1281;1016381;-59
2023/02/25 03:04:29;;;;;;;29.00;11.80;;;;;;;5.12;100.00;96582.41;67579;1282;1016472;-59
2023/02/25 03:07:31;;;;;;;;;;;;;;;5.06;100.00;96584.92;67600;1281;1015609;-60
2023/02/25 03:10:33;;;;;;;31.50;12.30;;;;;;;5.05;100.00;96581.38;67544;1281;1016063;-60
2023/02/25 03:13:36;;;;;;;31.60;11.80;;;;;;;5.05;100.00;96578.21;67545;1281;1016328;-59
2023/02/25 03:16:38;;;;;;;31.70;11.70;;;;;;;4.98;100.00;96575.63;67547;1281;1016870;-59
2023/02/25 03:19:41;;;;;;;29.70;10.90;;;;;;;5.05;100.00;96570.12;67605;1281;1017828;-59
2023/02/25 03:22:44;;;;;;;34.90;12.30;;;;;;;5.10;100.00;96573.90;67579;1282;1016241;-60
2023/02/25 03:25:47;;;;;;;29.90;11.40;;;;;;;5.17;100.00;96579.95;67568;1281;1016112;-59
2023/02/25 03:28:49;;;;;;;28.80;10.70;;;;;;;5.13;100.00;96580.39;67577;1281;1016397;-59
2023/02/25 03:31:55;;;;;;;31.90;12.10;;;;;;;5.10;100.00;96573.85;67574;1282;1016408;-59
2023/02/25 03:34:57;;;;;;;28.90;11.40;;;;;;;5.02;100.00;96587.84;67599;1282;1016492;-60
2023/02/25 03:38:00;;;;;;;28.50;10.40;;;;;;;5.01;100.00;96591.86;67580;1282;1016573;-60
2023/02/25 03:41:02;;;;;;;27.80;10.80;;;;;;;4.94;100.00;96598.08;67538;1282;1019168;-59
2023/02/25 03:44:05;;;;;;;28.00;9.30;;;;;;;4.90;100.00;96595.76;67545;1282;1016221;-59
2023/02/25 03:47:08;;;;;;;;;;;;;;;4.84;100.00;96590.88;67622;1282;1016453;-59
2023/02/25 03:50:10;;;;;;;25.50;9.70;;;;;;;4.81;100.00;96594.23;67583;1282;1016404;-60
2023/02/25 03:53:12;;;;;;;27.60;9.50;;;;;;;4.74;100.00;96590.50;67557;1282;1016125;-59
2023/02/25 03:56:15;;;;;;;27.90;10.60;;;;;;;4.71;100.00;96595.64;67551;1282;1016477;-59
2023/02/25 03:59:17;;;;;;;27.30;10.00;;;;;;;4.68;100.00;96593.95;67504;1282;1016363;-59
2023/02/25 04:02:19;;;;;;;29.90;10.30;;;;;;;4.69;100.00;96594.69;67579;1281;1019821;-59
2023/02/25 04:05:26;;;;;;;27.90;10.80;;;;;;;4.68;100.00;96599.15;67562;1282;1016488;-59
2023/02/25 04:08:29;;;;;;;30.50;11.80;;;;;;;4.66;100.00;96598.92;67535;1282;1016592;-59
2023/02/25 04:11:31;;;;;;;31.80;11.10;;;;;;;4.63;100.00;96598.25;67525;1282;1016448;-59
2023/02/25 04:14:33;;;;;;;31.10;10.80;;;;;;;4.58;100.00;96592.56;67592;1282;1016219;-59
2023/02/25 04:17:36;;;;;;;26.90;9.90;;;;;;;4.60;100.00;96591.38;67559;1282;1016463;-59
2023/02/25 04:20:39;;;;;;;29.90;11.40;;;;;;;4.58;100.00;96588.93;67576;1281;1016369;-59
2023/02/25 04:23:42;;;;;;;27.10;10.90;;;;;;;4.56;100.00;96591.52;67583;1281;1018907;-59
2023/02/25 04:26:44;;;;;;;28.10;10.80;;;;;;;4.63;100.00;96586.49;67575;1282;1016398;-59
2023/02/25 04:29:47;;;;;;;30.30;10.60;;;;;;;4.64;100.00;96586.95;67527;1281;1016524;-60
2023/02/25 04:32:49;;;;;;;33.50;12.90;;;;;;;4.63;100.00;96578.73;67543;1282;1016366;-59
2023/02/25 04:35:52;;;;;;;29.90;11.20;;;;;;;4.57;100.00;96579.02;67598;1281;1016511;-59
2023/02/25 04:38:54;;;;;;;27.30;10.00;;;;;;;4.54;100.00;96583.86;67593;1282;1016520;-59
2023/02/25 04:41:57;;;;;;;29.20;10.30;;;;;;;4.53;100.00;96583.94;67538;1282;1016139;-59
2023/02/25 04:44:59;;;;;;;23.00;8.90;;;;;;;4.47;100.00;96585.71;67518;1282;1016335;-59
2023/02/25 04:48:02;;;;;;;;;;;;;;;4.47;100.00;96592.34;67591;1281;1016464;-59
2023/02/25 04:51:05;;;;;;;26.20;10.30;;;;;;;4.48;100.00;96588.77;67535;1281;1015778;-59
2023/02/25 04:54:07;;;;;;;;;;;;;;;4.61;100.00;96577.29;67553;1282;1016529;-59
2023/02/25 04:57:10;;;;;;;26.80;9.90;;;;;;;4.60;100.00;96580.50;67553;1282;1017058;-59
2023/02/25 05:00:15;;;;;;;27.20;9.60;;;;;;;4.57;100.00;96584.34;67559;1281;1016189;-60
2023/02/25 05:03:17;;;;;;;28.10;11.00;;;;;;;4.48;100.00;96587.89;67560;1281;1018629;-59
2023/02/25 05:06:20;;;;;;;25.50;9.40;;;;;;;4.47;100.00;96581.73;67570;1281;1016031;-59
2023/02/25 05:09:22;;;;;;;27.90;9.60;;;;;;;4.56;100.00;96580.10;67544;1282;1016524;-59
2023/02/25 05:12:25;;;;;;;25.10;10.00;;;;;;;4.56;100.00;96579.24;67537;1282;1016193;-60
2023/02/25 05:15:27;;;;;;;25.10;9.60;;;;;;;4.53;100.00;96571.80;67583;1281;1016469;-59
2023/02/25 05:18:30;;;;;;;25.40;9.90;;;;;;;4.52;100.00;96574.51;67611;1282;1016667;-59
2023/02/25 05:21:32;;;;;;;24.80;9.30;;;;;;;4.55;100.00;96579.50;67563;1282;1016588;-60
2023/02/25 05:24:35;;;;;;;28.40;11.50;;;;;;;4.60;100.00;96581.70;67542;1281;1016927;-59
2023/02/25 05:27:37;;;;;;;24.50;9.00;;;;;;;4.57;100.00;96585.39;67535;1282;1015824;-59
2023/02/25 05:30:45;;;;;;;27.80;10.30;;;;;;;4.49;100.00;96588.70;67022;1281;5387355;-60
2023/02/25 05:33:48;;;;;;;26.30;9.20;;;;;;;4.49;100.00;96584.55;67570;1282;1016713;-59
2023/02/25 05:36:50;;;;;;;26.40;9.80;;;;;;;4.44;100.00;96593.56;67578;1281;1016432;-59
2023/02/25 05:39:52;;;;;;;24.00;8.60;;;;;;;4.44;100.00;96587.02;67551;1282;1016296;-59
2023/02/25 05:42:55;;;;;;;24.30;9.00;;;;;;;4.38;100.00;96597.84;67517;1281;1016252;-60
2023/02/25 05:45:57;;;;;;;24.00;8.70;;;;;;;4.39;100.00;96590.84;67495;1282;1016491;-59
2023/02/25 05:49:00;;;;;;;23.80;9.00;;;;;;;4.39;100.00;96599.45;67583;1281;1017135;-59
2023/02/25 05:52:02;;;;;;;23.80;9.20;;;;;;;4.44;100.00;96604.46;67551;1282;1016732;-59
2023/02/25 05:55:07;;;;;;;23.30;7.90;;;;;;;4.43;100.00;96605.56;67518;1282;1019472;-59
2023/02/25 05:58:10;;;;;;;24.30;8.10;;;;;;;4.47;100.00;96606.32;67548;1281;1016201;-60
2023/02/25 06:01:12;;;;;;;;;;;;;;;4.54;100.00;96616.77;67583;1282;1016356;-59
2023/02/25 06:04:15;;;;;;;24.30;8.80;;;;;;;4.56;100.00;96617.63;67528;1282;1016323;-59
2023/02/25 06:07:17;;;;;;;25.00;9.00;;;;;;;4.63;100.00;96622.83;67515;1281;1016294;-60
2023/02/25 06:10:21;;;;;;;26.40;9.40;;;;;;;4.66;100.00;96624.40;67590;1282;1015930;-59
2023/02/25 06:13:23;;;;;;;26.60;9.10;;;;;;;4.63;100.00;96625.09;67534;1281;1016541;-60
2023/02/25 06:16:29;;;;;;;24.40;8.90;;;;;;;4.68;100.00;96625.63;67595;1281;1016438;-59
2023/02/25 06:19:31;;;;;;;23.30;8.20;;;;;;;4.61;100.00;96631.64;67550;1281;1016425;-59
2023/02/25 06:22:33;;;;;;;24.60;9.50;;;;;;;4.52;100.00;96626.77;67559;1282;1016733;-59
2023/02/25 06:25:36;;;;;;;24.80;8.50;;;;;;;4.45;100.00;96633.30;67564;1281;1016348;-60
2023/02/25 06:28:38;;;;;;;23.30;8.60;;;;;;;4.49;100.00;96629.36;67549;1281;1016351;-59
2023/02/25 06:31:41;;;;;;;22.50;7.60;;;;;;;4.68;100.00;96632.55;67514;1281;1015936;-59
2023/02/25 06:34:45;;;;;;;27.80;9.50;;;;;;;4.67;100.00;96630.33;67535;1281;1016204;-59
2023/02/25 06:37:47;;;;;;;23.50;8.30;;;;;;;4.67;100.00;96631.04;67539;1281;1016399;-59
2023/02/25 06:40:50;;;;;;;21.80;7.50;;;;;;;4.90;100.00;96638.43;67538;1281;1016082;-60
2023/02/25 06:43:52;;;;;;;28.50;9.80;;;;;;;4.93;100.00;96640.05;67580;1281;1016445;-59
2023/02/25 06:46:55;;;;;;;29.60;11.00;;;;;;;5.06;100.00;96640.00;67558;1259;1016866;-60
2023/02/25 06:49:57;;;;;;;26.00;8.80;;;;;;;5.16;100.00;96638.23;67568;1281;1016252;-60
2023/02/25 06:53:00;;;;;;;24.90;8.70;;;;;;;5.14;100.00;96644.94;67581;1281;1016450;-60
2023/02/25 06:56:02;;;;;;;23.40;7.40;;;;;;;5.12;100.00;96644.43;67597;1281;1016479;-60
2023/02/25 06:59:05;;;;;;;25.50;8.50;;;;;;;5.14;100.00;96641.86;67532;1281;1015844;-60
2023/02/25 07:02:07;;;;;;;21.00;6.20;;;;;;;5.16;100.00;96646.36;67525;1281;1016795;-59
2023/02/25 07:05:09;;;;;;;23.70;7.70;;;;;;;5.08;100.00;96642.48;67570;1281;1016466;-59
2023/02/25 07:08:12;;;;;;;25.80;9.10;;;;;;;5.16;100.00;96637.54;67605;1282;1016295;-59
2023/02/25 07:11:14;;;;;;;25.40;8.00;;;;;;;5.27;100.00;96635.85;67582;1281;1016149;-59
2023/02/25 07:14:17;;;;;;;24.80;7.70;;;;;;;5.40;100.00;96646.81;67548;1281;1015960;-59
2023/02/25 07:17:19;;;;;;;24.70;7.80;;;;;;;5.46;100.00;96644.83;67551;1282;1016463;-60
2023/02/25 07:20:22;;;;;;;27.50;7.50;;;;;;;5.47;100.00;96641.30;67597;1281;1016546;-60
2023/02/25 07:23:24;;;;;;;23.00;7.50;;;;;;;5.50;100.00;96641.23;67585;1281;1016501;-59
2023/02/25 07:26:28;;;;;;;22.80;7.00;;;;;;;5.50;100.00;96628.95;67613;1281;1016471;-59
2023/02/25 07:29:30;;;;;;;21.40;6.40;;;;;;;5.61;100.00;96634.59;67598;1281;1016396;-59
2023/02/25 07:32:33;;;;;;;21.90;6.10;;;;;;;5.60;100.00;96630.76;67611;1281;1016324;-60
2023/02/25 07:35:35;;;;;;;23.20;6.70;;;;;;;5.81;100.00;96622.31;67537;1282;1016940;-59
2023/02/25 07:38:37;;;;;;;18.60;5.00;;;;;;;6.02;100.00;96617.36;67555;1282;1017345;-59
2023/02/25 07:41:40;;;;;;;19.50;5.50;;;;;;;6.20;100.00;96624.15;67600;1282;1016281;-59
2023/02/25 07:44:42;;;;;;;20.70;5.90;;;;;;;6.31;100.00;96615.98;67585;1282;1016575;-59
2023/02/25 07:47:45;;;;;;;19.60;5.70;;;;;;;6.42;100.00;96617.56;67600;1282;1016471;-59
2023/02/25 07:50:47;;;;;;;19.30;5.60;;;;;;;6.60;100.00;96616.69;67542;1282;1016378;-59
2023/02/25 07:53:50;;;;;;;29.20;10.30;;;;;;;6.77;100.00;96609.42;67537;1281;1016463;-61
2023/02/25 07:56:52;;;;;;;18.80;5.30;;;;;;;7.06;100.00;96604.50;67614;1281;1016533;-60
2023/02/25 07:59:55;;;;;;;20.10;5.90;;;;;;;6.97;100.00;96608.49;67586;1282;1016459;-60
2023/02/25 08:02:57;;;;;;;19.70;5.30;;;;;;;6.97;100.00;96612.17;67536;1281;1016396;-61
2023/02/25 08:06:01;;;;;;;17.50;4.80;;;;;;;7.20;100.00;96602.48;67531;1282;1016384;-60
2023/02/25 08:09:04;;;;;;;21.40;5.60;;;;;;;7.31;100.00;96601.06;67570;1282;1016035;-59
2023/02/25 08:12:07;;;;;;;;;;;;;;;7.45;100.00;96605.23;67606;1282;1016911;-59
2023/02/25 08:15:09;;;;;;;21.60;5.90;;;;;;;7.37;100.00;96605.09;67586;1282;1015798;-60
2023/02/25 08:18:11;;;;;;;18.30;4.60;;;;;;;7.57;100.00;96594.55;67587;1281;1016412;-59
2023/02/25 08:21:14;;;;;;;20.40;4.60;;;;;;;7.79;100.00;96597.52;67553;1282;1016286;-60
2023/02/25 08:24:19;;;;;;;13.20;3.60;;;;;;;7.59;100.00;96599.24;67545;1282;1016492;-60
2023/02/25 08:27:21;;;;;;;21.70;5.20;;;;;;;7.33;100.00;96596.55;67575;1282;1016232;-60
2023/02/25 08:30:24;;;;;;;16.00;3.60;;;;;;;7.02;100.00;96606.50;67562;1282;1016461;-60
2023/02/25 08:33:26;;;;;;;18.40;3.80;;;;;;;6.96;100.00;96587.59;67554;1282;1016668;-60
2023/02/25 08:36:29;;;;;;;15.90;4.20;;;;;;;6.88;100.00;96595.70;67555;1282;1016302;-60
2023/02/25 08:39:34;;;;;;;20.50;5.50;;;;;;;6.60;100.00;96590.80;67602;1282;1016420;-59
2023/02/25 08:42:37;;;;;;;15.00;4.00;;;;;;;6.50;100.00;96597.13;67568;1281;1018283;-59
2023/02/25 08:45:39;;;;;;;10.30;2.90;;;;;;;6.31;100.00;96610.45;67577;1281;1016420;-60
2023/02/25 08:48:41;;;;;;;15.90;4.10;;;;;;;6.18;100.00;96614.23;67608;1281;1017282;-59
2023/02/25 08:51:44;;;;;;;;;;;;;;;6.29;100.00;96610.97;67584;1282;1016383;-59
2023/02/25 08:54:47;;;;;;;15.30;3.70;;;;;;;6.22;100.00;96620.19;67535;1282;1016240;-59
2023/02/25 08:57:49;;;;;;;15.00;3.40;;;;;;;6.30;100.00;96634.86;67549;1281;1016441;-59
2023/02/25 09:00:53;;;;;;;15.70;3.90;;;;;;;6.42;100.00;96617.09;67549;1281;1016599;-60
2023/02/25 09:03:57;;;;;;;13.30;3.40;;;;;;;6.56;100.00;96615.46;67566;1282;1016521;-59
2023/02/25 09:06:59;;;;;;;17.60;3.60;;;;;;;6.58;100.00;96610.97;67546;1281;1016380;-59
2023/02/25 09:10:06;;;;;;;16.50;4.10;;;;;;;6.57;100.00;96609.98;67622;1281;1016551;-60
2023/02/25 09:13:08;;;;;;;19.30;4.60;;;;;;;6.72;100.00;96601.80;67580;1281;1016405;-60
2023/02/25 09:16:14;;;;;;;15.40;3.60;;;;;;;6.88;100.00;96605.23;67544;1281;1016448;-60
2023/02/25 09:19:17;;;;;;;14.10;3.10;;;;;;;6.80;100.00;96597.92;67619;1281;1016160;-60
2023/02/25 09:22:20;;;;;;;19.00;3.40;;;;;;;6.55;100.00;96605.80;67544;1282;1016455;-60
2023/02/25 09:25:22;;;;;;;8.90;2.60;;;;;;;6.70;100.00;96607.90;67600;1282;1016078;-60
2023/02/25 09:28:26;;;;;;;7.70;2.50;;;;;;;6.69;100.00;96615.29;67564;1281;1016404;-59
2023/02/25 09:31:28;;;;;;;10.50;2.90;;;;;;;6.86;100.00;96615.46;67597;1281;1017237;-60
2023/02/25 09:34:32;;;;;;;9.10;2.40;;;;;;;6.78;100.00;96623.76;67586;1281;1016115;-61
2023/02/25 09:37:35;;;;;;;12.20;3.00;;;;;;;6.61;100.00;96621.30;67539;1281;1016379;-60
2023/02/25 09:40:37;;;;;;;10.80;3.00;;;;;;;6.63;100.00;96614.04;67533;1281;1016416;-60
2023/02/25 09:43:40;;;;;;;8.90;2.00;;;;;;;6.63;100.00;96614.52;67535;1281;1016679;-59
2023/02/25 09:46:43;;;;;;;11.90;2.90;;;;;;;6.53;100.00;96612.15;67553;1281;1016528;-59
2023/02/25 09:49:45;;;;;;;9.90;2.80;;;;;;;6.70;100.00;96611.15;67550;1281;1016431;-59
2023/02/25 09:52:48;;;;;;;10.20;2.70;;;;;;;6.57;100.00;96621.94;67553;1282;1016017;-59
2023/02/25 09:55:50;;;;;;;9.60;2.60;;;;;;;6.44;100.00;96608.20;67589;1281;1016200;-60
2023/02/25 09:58:53;;;;;;;12.70;2.90;;;;;;;6.32;100.00;96623.77;67578;1282;1015878;-60
2023/02/25 10:01:56;;;;;;;14.90;3.50;;;;;;;6.22;100.00;96621.24;67592;1282;1016310;-59
2023/02/25 10:04:59;;;;;;;10.60;2.90;;;;;;;6.15;100.00;96618.83;67575;1282;1016476;-60
2023/02/25 10:08:03;;;;;;;12.40;3.10;;;;;;;6.24;100.00;96613.09;67577;1282;1016460;-59
2023/02/25 10:11:06;;;;;;;10.90;3.10;;;;;;;6.36;100.00;96615.80;67541;1282;1016533;-59
2023/02/25 10:14:08;;;;;;;17.00;3.50;;;;;;;6.42;100.00;96607.88;67570;1282;1016536;-60
2023/02/25 10:17:11;;;;;;;12.90;3.50;;;;;;;6.49;100.00;96609.77;67566;1281;1018450;-59
2023/02/25 10:20:17;;;;;;;14.80;3.30;;;;;;;6.46;100.00;96616.75;67595;1281;1016524;-60
2023/02/25 10:23:22;;;;;;;10.50;2.90;;;;;;;6.40;100.00;96608.20;67581;1282;1016416;-59
2023/02/25 10:26:25;;;;;;;12.30;2.90;;;;;;;6.41;100.00;96606.08;67575;1282;1016926;-60
2023/02/25 10:29:28;;;;;;;11.00;2.60;;;;;;;6.52;100.00;96601.85;67589;1282;1016418;-60
2023/02/25 10:32:30;;;;;;;12.00;3.10;;;;;;;6.74;100.00;96604.77;67535;1281;1016067;-60
2023/02/25 10:35:33;;;;;;;12.30;3.20;;;;;;;6.87;100.00;96615.55;67560;1281;1016793;-60
2023/02/25 10:38:35;;;;;;;;;;;;;;;6.87;100.00;96617.82;67591;1282;1016307;-60
2023/02/25 10:41:38;;;;;;;10.60;2.90;;;;;;;6.74;100.00;96603.05;67564;1282;1017253;-59
2023/02/25 10:44:40;;;;;;;10.10;2.80;;;;;;;6.60;100.00;96611.64;67520;1282;1017961;-59
2023/02/25 10:47:42;;;;;;;11.30;3.00;;;;;;;6.46;100.00;96603.77;67537;1282;1016358;-60
2023/02/25 10:50:45;;;;;;;10.50;2.80;;;;;;;6.21;100.00;96605.02;67603;1281;1016239;-59
2023/02/25 10:53:47;;;;;;;12.80;2.60;;;;;;;6.35;100.00;96601.48;67605;1281;1016353;-60
2023/02/25 10:56:50;;;;;;;11.40;2.90;;;;;;;6.70;100.00;96595.90;67588;1281;1018969;-59
2023/02/25 10:59:52;;;;;;;10.80;3.00;;;;;;;6.75;100.00;96598.85;67558;1281;1016628;-59
2023/02/25 11:02:56;;;;;;;13.20;3.50;;;;;;;6.72;100.00;96597.48;67529;1282;1016291;-59
2023/02/25 11:05:59;;;;;;;12.70;3.30;;;;;;;6.85;100.00;96601.11;67542;1282;1016694;-59
2023/02/25 11:09:02;;;;;;;9.90;3.10;;;;;;;6.91;100.00;96598.36;67564;1282;1019755;-59
2023/02/25 11:12:04;;;;;;;13.10;3.50;;;;;;;6.82;100.00;96611.48;67592;1281;1016156;-60
2023/02/25 11:15:07;;;;;;;11.80;3.00;;;;;;;6.67;100.00;96596.13;67532;1282;1016185;-60
2023/02/25 11:18:10;;;;;;;8.40;2.70;;;;;;;6.60;100.00;96602.95;67575;1281;1016511;-59
2023/02/25 11:21:14;;;;;;;10.80;3.20;;;;;;;6.76;100.00;96607.92;67584;1282;1016499;-59
2023/02/25 11:24:16;;;;;;;10.60;2.70;;;;;;;6.80;100.00;96615.46;67582;1281;1016528;-59
2023/02/25 11:27:19;;;;;;;9.90;2.80;;;;;;;6.61;100.00;96617.96;67484;1282;1018543;-59
2023/02/25 11:30:24;;;;;;;9.30;2.50;;;;;;;6.53;100.00;96634.59;67442;1282;1016373;-59
2023/02/25 11:33:26;;;;;;;6.60;2.10;;;;;;;6.47;100.00;96624.34;67462;1281;1016265;-60
2023/02/25 11:36:29;;;;;;;11.20;2.50;;;;;;;6.42;100.00;96629.18;67457;1282;1019451;-59
2023/02/25 11:39:33;;;;;;;10.20;2.80;;;;;;;6.64;100.00;96628.21;67480;1281;1019050;-61
2023/02/25 11:42:36;;;;;;;10.50;2.50;;;;;;;6.63;100.00;96621.85;67600;1281;1018437;-60
2023/02/25 11:45:38;;;;;;;6.30;2.00;;;;;;;6.56;100.00;96630.94;67557;1281;1016298;-60
2023/02/25 11:48:41;;;;;;;15.30;3.10;;;;;;;6.55;100.00;96626.80;67596;1281;1018177;-59
2023/02/25 11:51:47;;;;;;;6.10;1.70;;;;;;;6.66;100.00;96630.30;67573;1282;1016532;-60
2023/02/25 11:54:49;;;;;;;5.60;1.60;;;;;;;6.59;100.00;96638.27;67566;1281;1016369;-60
2023/02/25 11:57:51;;;;;;;6.50;1.90;;;;;;;6.47;100.00;96640.48;67541;1281;1016462;-60
2023/02/25 12:00:54;;;;;;;3.70;1.30;;;;;;;6.34;100.00;96636.30;67554;1281;1016430;-59
2023/02/25 12:03:56;;;;;;;5.40;1.70;;;;;;;5.90;100.00;96657.15;67578;1281;1016553;-59
2023/02/25 12:06:59;;;;;;;4.40;1.70;;;;;;;5.72;100.00;96646.21;67590;1281;1016388;-59
2023/02/25 12:10:01;;;;;;;5.30;1.40;;;;;;;5.45;100.00;96657.56;67588;1282;1016928;-59
2023/02/25 12:13:03;;;;;;;5.30;1.70;;;;;;;5.15;100.00;96655.11;67550;1282;1019548;-59
2023/02/25 12:16:06;;;;;;;4.50;1.20;;;;;;;4.89;100.00;96663.91;67517;1281;1016607;-60
2023/02/25 12:19:09;;;;;;;3.50;1.20;;;;;;;4.52;100.00;96672.43;67588;1282;1016292;-59
2023/02/25 12:22:13;;;;;;;4.60;1.20;;;;;;;4.29;100.00;96670.10;67547;1281;1016499;-59
2023/02/25 12:25:16;;;;;;;4.00;1.50;;;;;;;4.20;100.00;96673.98;67561;1282;1016374;-59
2023/02/25 12:28:18;;;;;;;4.50;1.60;;;;;;;4.22;100.00;96680.58;67572;1282;1018012;-59
2023/02/25 12:31:20;;;;;;;6.00;1.60;;;;;;;4.31;100.00;96675.27;67549;1281;1017779;-59
2023/02/25 12:34:23;;;;;;;4.20;1.50;;;;;;;4.70;100.00;96673.59;67573;1281;1018482;-59
2023/02/25 12:37:25;;;;;;;5.90;1.50;;;;;;;5.09;100.00;96673.24;67586;1282;1016259;-60
2023/02/25 12:40:28;;;;;;;4.50;1.20;;;;;;;5.37;100.00;96678.65;67608;1282;1016301;-59
2023/02/25 12:43:30;;;;;;;2.00;0.80;;;;;;;5.67;100.00;96672.58;67555;1281;1015810;-59
2023/02/25 12:46:33;;;;;;;4.40;1.20;;;;;;;5.86;100.00;96672.73;67543;1282;1016521;-59
2023/02/25 12:49:35;;;;;;;4.40;1.00;;;;;;;5.59;100.00;96679.80;67595;1281;1016243;-60
2023/02/25 12:52:38;;;;;;;;;;;;;;;5.28;100.00;96690.39;67587;1282;1016409;-59
2023/02/25 12:55:40;;;;;;;2.10;0.70;;;;;;;4.82;100.00;96713.61;67570;1280;1016472;-59
2023/02/25 12:58:43;;;;;;;2.20;0.80;;;;;;;4.49;100.00;96711.76;67540;1282;1016488;-59
2023/02/25 13:01:47;;;;;;;2.20;0.60;;;;;;;4.27;100.00;96720.38;67589;1282;1016412;-59
2023/02/25 13:04:51;;;;;;;1.60;0.70;;;;;;;4.25;100.00;96713.41;67574;1282;1016683;-59
2023/02/25 13:07:54;;;;;;;3.10;0.90;;;;;;;4.31;100.00;96711.77;67600;1282;1015722;-59
2023/02/25 13:10:56;;;;;;;4.00;0.80;;;;;;;4.34;100.00;96720.59;67569;1282;1016440;-59
2023/02/25 13:13:58;;;;;;;2.80;0.90;;;;;;;4.18;100.00;96727.94;67548;1282;1015851;-59
2023/02/25 13:17:02;;;;;;;5.10;1.40;;;;;;;3.75;100.00;96717.83;67537;1282;1016419;-60
2023/02/25 13:20:05;;;;;;;8.70;2.10;;;;;;;3.55;100.00;96722.63;67522;1282;1016488;-59
2023/02/25 13:23:07;;;;;;;2.00;1.00;;;;;;;3.59;100.00;96719.09;67565;1282;1016598;-59
2023/02/25 13:26:10;;;;;;;2.50;0.90;;;;;;;3.71;100.00;96709.47;67595;1281;1019331;-59
2023/02/25 13:29:13;;;;;;;2.50;1.00;;;;;;;3.93;100.00;96720.77;67568;1282;1015753;-59
2023/02/25 13:32:15;;;;;;;4.60;1.30;;;;;;;3.97;100.00;96726.42;67535;1282;1016454;-59
2023/02/25 13:35:18;;;;;;;6.00;1.20;;;;;;;4.11;100.00;96718.52;67569;1282;1019198;-59
2023/02/25 13:38:20;;;;;;;4.70;1.60;;;;;;;4.41;100.00;96717.02;67577;1282;1018429;-59
2023/02/25 13:41:22;;;;;;;7.40;1.80;;;;;;;4.56;100.00;96713.88;67594;1281;1019086;-60
2023/02/25 13:44:25;;;;;;;5.90;1.60;;;;;;;4.80;100.00;96717.19;67551;1281;1016583;-59
2023/02/25 13:47:27;;;;;;;6.70;2.20;;;;;;;5.24;100.00;96724.67;67556;1282;1016368;-59
2023/02/25 13:50:31;;;;;;;9.30;2.40;;;;;;;5.47;100.00;96733.68;67561;1282;1016466;-60
2023/02/25 13:53:34;;;;;;;12.30;3.10;;;;;;;5.55;100.00;96736.25;67568;1282;1016476;-59